createdAt,value
2023-11-14T00:03:09.032Z,31.02
2023-11-14T00:08:13.417Z,19.35
2023-11-14T00:13:15.481Z,31.52
2023-11-14T00:18:17.346Z,24.80
2023-11-14T00:23:19.407Z,30.42
2023-11-14T00:28:21.541Z,28.23
2023-11-14T00:33:23.628Z,18.88
2023-11-14T00:38:25.465Z,25.23
2023-11-14T00:43:27.526Z,47.85
2023-11-14T00:48:29.962Z,44.03
2023-11-14T00:53:32.101Z,40.92
2023-11-14T00:58:36.208Z,35.17
2023-11-14T01:03:38.245Z,30.45
2023-11-14T01:08:40.234Z,38.03
2023-11-14T01:13:42.203Z,26.08
2023-11-14T01:18:44.529Z,27.58
2023-11-14T01:23:46.889Z,28.20
2023-11-14T01:28:48.926Z,23.73
2023-11-14T01:33:50.931Z,21.95
2023-11-14T01:38:55.548Z,24.80
2023-11-14T01:43:57.375Z,28.85
2023-11-14T01:49:00.464Z,9.23
2023-11-14T01:54:02.958Z,38.50
2023-11-14T01:59:05.664Z,24.08
2023-11-14T02:04:14.090Z,25.05
2023-11-14T02:09:15.929Z,30.73
2023-11-14T02:14:18.046Z,19.27
2023-11-14T02:19:20.413Z,27.55
2023-11-14T02:24:22.619Z,21.92
2023-11-14T02:29:27.378Z,27.00
2023-11-14T02:34:31.869Z,24.35
2023-11-14T02:39:34.241Z,26.00
2023-11-14T02:44:38.555Z,35.70
2023-11-14T02:50:00.042Z,34.30
2023-11-14T02:55:02.000Z,17.77
2023-11-14T03:00:05.504Z,30.42
2023-11-14T03:05:09.977Z,16.92
2023-11-14T03:10:14.199Z,32.17
2023-11-14T03:15:16.201Z,34.08
2023-11-14T03:20:24.348Z,22.00
2023-11-14T03:25:30.950Z,24.77
2023-11-14T03:30:34.333Z,31.67
2023-11-14T03:35:36.293Z,17.77
2023-11-14T03:40:38.249Z,42.95
2023-11-14T03:45:40.312Z,17.17
2023-11-14T03:50:42.213Z,23.27
2023-11-14T03:55:44.152Z,31.75
2023-11-14T04:00:46.693Z,46.25
2023-11-14T04:05:48.480Z,39.28
2023-11-14T04:10:50.571Z,27.67
2023-11-14T04:15:54.633Z,27.83
2023-11-14T04:20:56.607Z,18.77
2023-11-14T04:26:00.908Z,10.80
2023-11-14T04:31:02.926Z,9.60
2023-11-14T04:36:05.324Z,18.08
2023-11-14T04:41:09.909Z,21.90
2023-11-14T04:46:11.784Z,30.55
2023-11-14T04:51:13.897Z,19.02
2023-11-14T04:56:18.421Z,28.63
2023-11-14T05:01:22.826Z,14.65
2023-11-14T05:06:25.288Z,18.88
2023-11-14T05:11:27.443Z,23.48
2023-11-14T05:16:29.669Z,18.95
2023-11-14T05:21:31.944Z,21.58
2023-11-14T05:26:33.833Z,25.63
2023-11-14T05:31:36.977Z,16.30
2023-11-14T05:36:39.179Z,19.63
2023-11-14T05:41:43.781Z,13.23
2023-11-14T05:46:45.961Z,18.33
2023-11-14T05:51:48.031Z,13.57
2023-11-14T05:56:50.123Z,19.90
2023-11-14T06:01:54.972Z,19.85
2023-11-14T06:06:57.082Z,26.35
2023-11-14T06:11:59.110Z,16.88
2023-11-14T06:17:01.094Z,16.13
2023-11-14T06:22:03.537Z,7.53
2023-11-14T06:27:05.880Z,10.90
2023-11-14T06:32:08.339Z,10.73
2023-11-14T06:37:12.693Z,24.38
2023-11-14T06:42:17.249Z,16.90
2023-11-14T06:47:19.262Z,10.35
2023-11-14T06:52:21.258Z,15.70
2023-11-14T06:57:23.057Z,20.67
2023-11-14T07:02:25.073Z,13.85
2023-11-14T07:07:27.066Z,18.60
2023-11-14T07:12:31.237Z,22.90
2023-11-14T07:17:36.882Z,6.20
2023-11-14T07:22:42.117Z,13.07
2023-11-14T07:27:44.621Z,18.20
2023-11-14T07:32:48.987Z,7.30
2023-11-14T07:37:51.037Z,12.73
2023-11-14T07:42:53.691Z,11.10
2023-11-14T07:47:55.535Z,13.25
2023-11-14T07:52:59.673Z,18.63
2023-11-14T07:58:01.483Z,14.73
2023-11-14T08:03:04.797Z,12.27
2023-11-14T08:08:09.304Z,12.13
2023-11-14T08:13:11.698Z,22.25
2023-11-14T08:18:14.712Z,6.00
2023-11-14T08:23:19.422Z,21.75
2023-11-14T08:28:23.665Z,12.48
2023-11-14T08:33:25.607Z,12.88
2023-11-14T08:38:28.860Z,11.75
2023-11-14T08:43:33.485Z,17.25
2023-11-14T08:48:35.374Z,8.45
2023-11-14T08:53:37.244Z,12.95
2023-11-14T08:58:39.139Z,18.92
2023-11-14T09:03:45.768Z,9.38
2023-11-14T09:08:49.935Z,15.57
2023-11-14T09:13:58.439Z,17.25
2023-11-14T09:19:00.691Z,16.85
2023-11-14T09:24:04.887Z,10.40
2023-11-14T09:29:06.696Z,8.60
2023-11-14T09:34:09.858Z,8.30
2023-11-14T09:39:24.255Z,19.45
2023-11-14T09:44:29.701Z,12.13
2023-11-14T09:49:32.096Z,8.15
2023-11-14T09:54:35.191Z,15.52
2023-11-14T09:59:43.040Z,15.43
2023-11-14T10:04:47.540Z,8.93
2023-11-14T10:09:49.745Z,15.93
2023-11-14T10:14:51.736Z,7.80
2023-11-14T10:19:57.583Z,7.63
2023-11-14T10:24:59.566Z,11.60
2023-11-14T10:30:01.391Z,9.38
2023-11-14T10:35:18.849Z,11.20
2023-11-14T10:40:20.742Z,11.88
2023-11-14T10:45:22.604Z,8.45
2023-11-14T10:50:28.833Z,7.63
2023-11-14T10:55:30.940Z,6.53
2023-11-14T11:00:35.619Z,7.72
2023-11-14T11:05:39.445Z,4.57
2023-11-14T11:10:44.713Z,6.05
2023-11-14T11:15:48.567Z,10.20
2023-11-14T11:20:51.490Z,7.00
2023-11-14T11:26:13.032Z,5.25
2023-11-14T11:31:24.754Z,6.63
2023-11-14T11:36:26.916Z,9.13
2023-11-14T11:41:36.862Z,5.07
2023-11-14T11:46:46.034Z,4.78
2023-11-14T11:51:49.202Z,11.65
2023-11-14T11:56:55.862Z,9.10
2023-11-14T12:02:03.425Z,7.78
2023-11-14T12:07:05.739Z,10.25
2023-11-14T12:12:10.216Z,6.10
2023-11-14T12:17:12.424Z,9.43
2023-11-14T12:22:14.347Z,6.43
2023-11-14T12:27:18.457Z,10.52
2023-11-14T12:32:25.508Z,13.05
2023-11-14T12:37:28.507Z,6.55
2023-11-14T12:42:30.735Z,7.30
2023-11-14T12:47:34.145Z,14.80
2023-11-14T12:52:42.774Z,23.25
2023-11-14T12:57:47.135Z,11.02
2023-11-14T13:02:49.186Z,19.15
2023-11-14T13:07:51.786Z,12.45
2023-11-14T13:12:53.580Z,17.20
2023-11-14T13:17:55.489Z,5.35
2023-11-14T13:22:58.780Z,11.02
2023-11-14T13:28:04.856Z,14.23
2023-11-14T13:33:06.811Z,8.48
2023-11-14T13:38:16.001Z,6.57
2023-11-14T13:43:18.270Z,11.52
2023-11-14T13:48:21.282Z,7.15
2023-11-14T13:53:28.153Z,9.10
2023-11-14T13:58:32.607Z,5.15
2023-11-14T14:03:34.607Z,17.67
2023-11-14T14:08:37.198Z,16.70
2023-11-14T14:13:42.078Z,11.65
2023-11-14T14:18:46.257Z,15.30
2023-11-14T14:23:48.438Z,7.75
2023-11-14T14:28:50.393Z,10.45
2023-11-14T14:33:52.642Z,6.88
2023-11-14T14:38:54.942Z,7.05
2023-11-14T14:43:59.192Z,5.53
2023-11-14T14:49:01.129Z,8.75
2023-11-14T14:54:04.398Z,14.00
2023-11-14T14:59:06.551Z,5.35
2023-11-14T15:04:08.731Z,2.38
2023-11-14T15:09:12.128Z,7.68
2023-11-14T15:14:14.510Z,13.48
2023-11-14T15:19:16.515Z,11.93
2023-11-14T15:24:20.866Z,18.55
2023-11-14T15:29:23.682Z,10.65
2023-11-14T15:34:27.878Z,14.02
2023-11-14T15:39:33.307Z,9.93
2023-11-14T15:44:36.573Z,9.35
2023-11-14T15:49:38.793Z,8.05
2023-11-14T15:54:40.670Z,16.17
2023-11-14T15:59:43.851Z,10.60
2023-11-14T16:04:45.690Z,6.85
2023-11-14T16:09:47.618Z,11.05
2023-11-14T16:14:50.879Z,2.67
2023-11-14T16:19:55.361Z,4.55
2023-11-14T16:25:02.000Z,14.10
2023-11-14T16:30:05.932Z,9.32
2023-11-14T16:35:10.892Z,11.95
2023-11-14T16:40:16.075Z,11.95
2023-11-14T16:45:18.704Z,16.73
2023-11-14T16:50:21.020Z,12.30
2023-11-14T16:55:23.454Z,9.88
2023-11-14T17:00:29.311Z,9.18
2023-11-14T17:05:38.334Z,7.57
2023-11-14T17:10:45.862Z,3.90
2023-11-14T17:21:44.324Z,10.85
2023-11-14T17:26:49.358Z,12.35
2023-11-14T17:31:53.886Z,10.40
2023-11-14T17:42:11.834Z,19.67
2023-11-14T17:47:15.083Z,6.93
2023-11-14T17:52:18.027Z,6.38
2023-11-14T17:57:20.907Z,7.60
2023-11-14T18:02:23.481Z,4.95
2023-11-14T18:07:25.713Z,1.55
2023-11-14T18:12:28.303Z,3.40
2023-11-14T18:17:30.312Z,3.90
2023-11-14T18:22:34.516Z,3.53
2023-11-14T18:27:36.515Z,5.97
2023-11-14T18:32:39.532Z,7.38
2023-11-14T18:37:41.860Z,3.28
2023-11-14T18:42:46.503Z,10.15
2023-11-14T18:47:48.455Z,10.50
2023-11-14T18:52:53.342Z,6.97
2023-11-14T18:57:55.826Z,8.00
2023-11-14T19:02:57.929Z,10.65
2023-11-14T19:07:59.851Z,6.55
2023-11-14T19:13:02.064Z,2.58
2023-11-14T19:18:04.263Z,7.00
2023-11-14T19:23:40.402Z,9.43
2023-11-14T19:28:29.566Z,8.88
2023-11-14T19:33:31.455Z,8.75
2023-11-14T19:38:34.940Z,12.85
2023-11-14T19:43:41.010Z,10.88
2023-11-14T19:48:43.106Z,10.18
2023-11-14T19:53:45.092Z,28.73
2023-11-14T19:58:47.076Z,24.13
2023-11-14T20:03:49.632Z,10.40
2023-11-14T20:08:51.942Z,41.88
2023-11-14T20:13:53.846Z,16.85
2023-11-14T20:18:55.649Z,15.50
2023-11-14T20:23:57.835Z,11.13
2023-11-14T20:28:59.971Z,13.65
2023-11-14T20:34:01.941Z,9.15
2023-11-14T20:39:04.163Z,4.25
2023-11-14T20:44:07.098Z,13.65
2023-11-14T20:49:09.324Z,11.40
2023-11-14T20:54:11.662Z,20.58
2023-11-14T20:59:14.000Z,15.23
2023-11-14T21:04:16.023Z,10.50
2023-11-14T21:09:19.188Z,13.60
2023-11-14T21:14:24.074Z,16.00
2023-11-14T21:19:25.949Z,6.75
2023-11-14T21:24:32.185Z,17.27
2023-11-14T21:29:34.222Z,21.50
2023-11-14T21:34:36.632Z,15.40
2023-11-14T21:39:38.649Z,11.57
2023-11-14T21:44:40.613Z,17.05
2023-11-14T21:49:43.752Z,22.35
2023-11-14T21:54:46.777Z,8.82
2023-11-14T21:59:50.487Z,8.52
2023-11-14T22:04:54.655Z,13.60
2023-11-14T22:09:56.413Z,16.88
2023-11-14T22:14:59.269Z,7.93
2023-11-14T22:20:03.463Z,11.77
2023-11-14T22:25:09.592Z,6.80
2023-11-14T22:30:14.866Z,10.45
2023-11-14T22:35:16.804Z,7.20
2023-11-14T22:40:19.420Z,8.48
2023-11-14T22:45:24.049Z,14.82
2023-11-14T22:50:26.064Z,8.20
2023-11-14T22:55:27.892Z,8.70
2023-11-14T23:00:45.366Z,16.95
2023-11-14T23:05:50.487Z,9.50
2023-11-14T23:10:52.550Z,10.35
2023-11-14T23:15:55.822Z,13.93
2023-11-14T23:20:57.729Z,9.38
2023-11-14T23:26:00.000Z,11.00
2023-11-14T23:31:04.187Z,10.38
2023-11-14T23:36:06.880Z,8.75
2023-11-14T23:41:11.042Z,15.05
2023-11-14T23:46:17.963Z,2.72
2023-11-14T23:51:22.705Z,7.22
2023-11-14T23:56:24.890Z,13.25
